Time;durP1;ratioP1;P1;durP2;ratioP2;P2;SDS_P1;SDS_P2;PMS_P1;PMS_P2;Temp;Humidity;BMP_temperature;BMP_pressure;BME280_temperature;BME280_humidity;BME280_pressure;Samples;Min_cycle;Max_cycle;Signal;HPM_P1;HPM_P2
2022/03/24 00:00:07;;;;;;;3.08;1.30;;;19.60;99.90;;;;;;4985901;28;20109;-75
2022/03/24 00:02:34;;;;;;;2.42;1.00;;;19.60;99.90;;;;;;4980028;28;20034;-75
2022/03/24 00:05:02;;;;;;;4.22;2.10;;;19.60;99.90;;;;;;4984481;28;20038;-72
2022/03/24 00:07:29;;;;;;;2.88;1.60;;;19.60;99.90;;;;;;4984232;28;20026;-73
2022/03/24 00:09:57;;;;;;;4.93;1.40;;;19.60;99.90;;;;;;4982168;28;20038;-73
2022/03/24 00:12:24;;;;;;;4.82;1.45;;;19.60;99.90;;;;;;4988967;28;20467;-74
2022/03/24 00:14:51;;;;;;;2.95;1.30;;;19.50;99.90;;;;;;4975047;28;20027;-73
2022/03/24 00:17:19;;;;;;;9.52;1.50;;;19.50;99.90;;;;;;4975823;28;20040;-74
2022/03/24 00:19:46;;;;;;;4.55;1.88;;;19.50;99.90;;;;;;4987494;28;20023;-74
2022/03/24 00:22:14;;;;;;;4.47;1.38;;;19.40;99.90;;;;;;4976936;28;20042;-73
2022/03/24 00:24:42;;;;;;;5.30;1.67;;;19.40;99.90;;;;;;4984589;28;20022;-73
2022/03/24 00:27:09;;;;;;;8.55;2.10;;;19.40;99.90;;;;;;4984188;28;20145;-74
2022/03/24 00:29:37;;;;;;;3.00;1.83;;;19.50;99.90;;;;;;4982779;28;20108;-74
2022/03/24 00:32:04;;;;;;;4.10;1.33;;;19.50;99.90;;;;;;4985124;28;20034;-73
2022/03/24 00:34:32;;;;;;;8.38;1.67;;;19.50;99.90;;;;;;4980211;28;20078;-75
2022/03/24 00:36:59;;;;;;;2.25;1.20;;;19.60;99.90;;;;;;4975222;28;20039;-75
2022/03/24 00:39:27;;;;;;;2.30;0.70;;;19.60;99.90;;;;;;4982581;28;20429;-73
2022/03/24 00:41:54;;;;;;;2.47;0.80;;;19.50;99.90;;;;;;4989710;28;20065;-74
2022/03/24 00:44:21;;;;;;;3.53;1.10;;;19.50;99.90;;;;;;4985402;28;20484;-74
2022/03/24 00:46:49;;;;;;;3.22;0.40;;;19.50;99.90;;;;;;4980191;28;20023;-74
2022/03/24 00:49:16;;;;;;;2.58;0.60;;;19.50;99.90;;;;;;4982832;28;20042;-76
2022/03/24 00:51:44;;;;;;;2.38;0.50;;;19.50;99.90;;;;;;4981335;28;20475;-75
2022/03/24 00:54:11;;;;;;;0.98;0.60;;;19.50;99.90;;;;;;4986260;28;20380;-76
2022/03/24 00:56:39;;;;;;;1.00;0.60;;;19.60;99.90;;;;;;4981098;28;20520;-75
2022/03/24 00:59:06;;;;;;;3.53;0.70;;;19.50;99.90;;;;;;4979944;28;20026;-74
2022/03/24 01:01:34;;;;;;;3.47;0.65;;;19.50;99.90;;;;;;4977010;28;20026;-73
2022/03/24 01:04:04;;;;;;;1.88;0.68;;;19.50;99.90;;;;;;4983159;28;20029;-73
2022/03/24 01:06:32;;;;;;;2.28;0.47;;;19.60;99.90;;;;;;4978234;28;20038;-73
2022/03/24 01:09:00;;;;;;;1.00;0.50;;;19.50;99.90;;;;;;4978856;28;20039;-73
2022/03/24 01:11:28;;;;;;;1.88;0.60;;;19.50;99.90;;;;;;4981124;28;20495;-73
2022/03/24 01:13:55;;;;;;;4.03;0.90;;;19.60;99.90;;;;;;4981759;28;20035;-72
2022/03/24 01:16:25;;;;;;;1.15;0.43;;;19.60;99.90;;;;;;4988022;28;20029;-74
2022/03/24 01:18:54;;;;;;;1.73;0.63;;;19.70;99.90;;;;;;4980135;28;20081;-73
2022/03/24 01:21:21;;;;;;;1.33;0.63;;;19.70;99.90;;;;;;4981973;28;20034;-75
2022/03/24 01:23:49;;;;;;;1.88;0.50;;;19.70;99.90;;;;;;4990404;28;20118;-72
2022/03/24 01:26:18;;;;;;;1.35;0.63;;;19.60;99.90;;;;;;5006172;28;20030;-73
2022/03/24 01:28:46;;;;;;;1.73;0.45;;;19.70;99.90;;;;;;5007137;28;20039;-73
2022/03/24 01:31:14;;;;;;;2.80;0.57;;;19.70;99.90;;;;;;4995985;28;20532;-74
2022/03/24 01:33:48;;;;;;;2.17;0.67;;;19.90;99.90;;;;;;4990472;28;20038;-74
2022/03/24 01:36:16;;;;;;;3.72;1.10;;;20.20;99.90;;;;;;4982216;28;20033;-75
2022/03/24 01:38:43;;;;;;;2.33;0.60;;;20.40;99.90;;;;;;4975594;28;20117;-72
2022/03/24 01:41:11;;;;;;;3.88;0.68;;;20.50;99.90;;;;;;4979717;28;20124;-73
2022/03/24 01:43:40;;;;;;;3.08;0.70;;;20.50;99.90;;;;;;4988829;28;20029;-74
2022/03/24 01:46:08;;;;;;;2.30;0.57;;;20.50;99.90;;;;;;4982770;28;20031;-75
2022/03/24 01:48:36;;;;;;;1.40;0.63;;;20.50;99.90;;;;;;4972883;28;20489;-74
2022/03/24 01:51:06;;;;;;;1.10;0.63;;;20.70;99.90;;;;;;4974602;28;20053;-75
2022/03/24 01:53:33;;;;;;;1.98;0.80;;;20.90;99.90;;;;;;4987460;28;20057;-75
2022/03/24 01:56:01;;;;;;;6.03;1.27;;;21.00;99.90;;;;;;4980129;28;20031;-72
2022/03/24 01:58:29;;;;;;;5.45;1.73;;;21.00;99.90;;;;;;4974377;28;20488;-73
2022/03/24 02:01:22;;;;;;;2.38;0.68;;;21.00;99.90;;;;;;4972365;28;20385;-73
2022/03/24 02:03:51;;;;;;;4.28;1.30;;;20.90;99.90;;;;;;4974697;28;20477;-75
2022/03/24 02:06:18;;;;;;;5.57;1.42;;;20.80;99.90;;;;;;4982661;28;20023;-75
2022/03/24 02:08:47;;;;;;;3.13;1.10;;;20.70;99.90;;;;;;4989739;28;20041;-75
2022/03/24 02:11:14;;;;;;;4.63;1.40;;;20.60;99.90;;;;;;4973478;28;20034;-74
2022/03/24 02:13:42;;;;;;;3.55;1.88;;;20.50;99.90;;;;;;4981079;28;20030;-74
2022/03/24 02:16:11;;;;;;;3.95;1.05;;;20.40;99.90;;;;;;4991792;28;20547;-74
2022/03/24 02:18:38;;;;;;;2.38;1.75;;;20.30;99.90;;;;;;4985446;28;20487;-74
2022/03/24 02:21:05;;;;;;;5.32;0.75;;;20.30;99.90;;;;;;4978125;28;20039;-74
2022/03/24 02:23:33;;;;;;;3.38;1.25;;;20.30;99.90;;;;;;4978024;28;20027;-75
2022/03/24 02:26:02;;;;;;;3.22;1.30;;;20.20;99.90;;;;;;4981988;28;20078;-75
2022/03/24 02:28:30;;;;;;;2.85;1.23;;;20.20;99.90;;;;;;4980230;28;20045;-75
2022/03/24 02:30:58;;;;;;;4.07;0.88;;;20.20;99.90;;;;;;4978342;28;20440;-75
2022/03/24 02:33:25;;;;;;;4.28;1.02;;;20.30;99.90;;;;;;4981948;28;20401;-76
2022/03/24 02:35:53;;;;;;;4.78;1.58;;;20.40;99.90;;;;;;4976233;28;20093;-74
2022/03/24 02:38:20;;;;;;;4.57;0.98;;;20.50;99.90;;;;;;4985002;28;20027;-76
2022/03/24 02:40:51;;;;;;;5.88;1.17;;;20.60;99.90;;;;;;4975380;28;20045;-75
2022/03/24 02:43:20;;;;;;;9.02;1.40;;;20.70;99.90;;;;;;4978495;28;20113;-75
2022/03/24 02:45:50;;;;;;;1.52;0.68;;;20.80;99.90;;;;;;4990025;28;20027;-75
2022/03/24 02:48:18;;;;;;;4.20;1.13;;;20.80;99.90;;;;;;4990172;28;20113;-75
2022/03/24 02:50:45;;;;;;;3.58;1.05;;;20.90;99.90;;;;;;4989744;28;20045;-75
2022/03/24 02:53:12;;;;;;;3.13;1.27;;;21.00;99.90;;;;;;4985341;28;20046;-75
2022/03/24 02:55:40;;;;;;;4.90;1.02;;;21.10;99.90;;;;;;4977307;28;20073;-75
2022/03/24 02:58:07;;;;;;;3.72;1.45;;;21.10;99.90;;;;;;4976982;28;20053;-75
2022/03/24 03:00:34;;;;;;;2.58;1.02;;;21.10;99.90;;;;;;4991390;28;20030;-74
2022/03/24 03:03:02;;;;;;;9.70;1.95;;;21.20;99.90;;;;;;4990955;28;20102;-75
2022/03/24 03:05:29;;;;;;;3.95;1.05;;;21.20;99.90;;;;;;4989685;28;20105;-76
2022/03/24 03:07:56;;;;;;;2.58;1.30;;;21.20;99.90;;;;;;4981470;28;20532;-74
2022/03/24 03:10:24;;;;;;;7.07;1.45;;;21.20;99.90;;;;;;4992599;28;20038;-74
2022/03/24 03:12:51;;;;;;;5.03;0.95;;;21.30;99.90;;;;;;4990806;28;20034;-76
2022/03/24 03:15:18;;;;;;;1.50;0.80;;;21.40;99.90;;;;;;4986990;28;20033;-75
2022/03/24 03:17:46;;;;;;;3.70;0.88;;;21.40;99.90;;;;;;4990436;28;20523;-75
2022/03/24 03:20:13;;;;;;;6.13;0.95;;;21.40;99.90;;;;;;4988232;28;20034;-74
2022/03/24 03:22:41;;;;;;;4.88;0.98;;;21.30;99.90;;;;;;4988873;28;20109;-75
2022/03/24 03:25:08;;;;;;;2.45;0.82;;;21.30;99.90;;;;;;4979561;28;20034;-76
2022/03/24 03:27:36;;;;;;;5.70;0.80;;;21.30;99.90;;;;;;4976286;28;20023;-75
2022/03/24 03:30:05;;;;;;;6.20;1.08;;;21.20;99.90;;;;;;4992733;28;20107;-74
2022/03/24 03:32:32;;;;;;;4.95;1.10;;;21.20;99.90;;;;;;4993387;28;20040;-75
2022/03/24 03:34:59;;;;;;;5.10;0.90;;;21.20;99.90;;;;;;4981797;28;20523;-75
2022/03/24 03:37:28;;;;;;;5.07;1.33;;;21.20;99.90;;;;;;4994786;28;20038;-75
2022/03/24 03:39:55;;;;;;;5.95;0.90;;;21.30;99.90;;;;;;4986781;28;20105;-74
2022/03/24 03:42:24;;;;;;;4.00;0.95;;;21.40;99.90;;;;;;4987899;28;20079;-75
2022/03/24 03:44:52;;;;;;;5.57;1.27;;;21.50;99.90;;;;;;4985965;28;20046;-74
2022/03/24 03:47:19;;;;;;;4.25;0.60;;;21.60;99.90;;;;;;4982766;28;20104;-74
2022/03/24 03:49:47;;;;;;;4.50;1.00;;;21.60;99.90;;;;;;4988203;28;20042;-75
2022/03/24 03:52:15;;;;;;;7.03;1.30;;;21.60;99.90;;;;;;4988189;28;20039;-74
2022/03/24 03:54:43;;;;;;;3.70;1.02;;;21.60;99.90;;;;;;4986675;28;20105;-74
2022/03/24 03:57:10;;;;;;;3.33;0.88;;;21.50;99.90;;;;;;4991453;28;20037;-75
2022/03/24 03:59:39;;;;;;;3.95;0.98;;;21.60;99.90;;;;;;4987794;28;20499;-74
2022/03/24 04:02:07;;;;;;;3.50;1.10;;;21.50;99.90;;;;;;4990264;28;20019;-75
2022/03/24 04:04:34;;;;;;;4.88;1.20;;;21.40;99.90;;;;;;4986505;28;20113;-75
2022/03/24 04:07:01;;;;;;;4.65;0.88;;;21.30;99.90;;;;;;4983387;28;20128;-75
2022/03/24 04:09:29;;;;;;;4.13;0.90;;;21.30;99.90;;;;;;4985661;28;20041;-74
2022/03/24 04:11:56;;;;;;;4.72;0.70;;;21.30;99.90;;;;;;4980316;28;20498;-75
2022/03/24 04:14:25;;;;;;;3.38;1.08;;;21.20;99.90;;;;;;4985079;28;20065;-74
2022/03/24 04:16:56;;;;;;;4.75;0.93;;;21.10;99.90;;;;;;4990843;28;20440;-75
2022/03/24 04:19:25;;;;;;;4.97;1.55;;;21.10;99.90;;;;;;4987110;28;20642;-74
2022/03/24 04:21:53;;;;;;;3.50;1.35;;;20.90;99.90;;;;;;4991238;28;20097;-73
2022/03/24 04:24:20;;;;;;;2.80;0.70;;;20.60;99.90;;;;;;4980926;28;20030;-74
2022/03/24 04:26:47;;;;;;;2.33;1.05;;;20.50;99.90;;;;;;4985222;28;20050;-74
2022/03/24 04:29:15;;;;;;;4.82;0.70;;;20.40;99.90;;;;;;4987501;28;20054;-74
2022/03/24 04:31:42;;;;;;;1.98;0.63;;;20.40;99.90;;;;;;4987042;28;20026;-74
2022/03/24 04:34:10;;;;;;;3.58;0.77;;;20.50;99.90;;;;;;4987018;28;20062;-73
2022/03/24 04:36:37;;;;;;;8.73;0.90;;;20.50;99.90;;;;;;4990439;28;20035;-74
2022/03/24 04:39:05;;;;;;;2.30;0.47;;;20.60;99.90;;;;;;4991238;28;20040;-74
2022/03/24 04:41:32;;;;;;;4.85;0.73;;;20.70;99.90;;;;;;4993478;28;20023;-74
2022/03/24 04:44:01;;;;;;;4.65;0.77;;;20.80;99.90;;;;;;4984792;28;20037;-74
2022/03/24 04:46:28;;;;;;;5.60;0.68;;;20.80;99.90;;;;;;4988935;28;20121;-74
2022/03/24 04:48:56;;;;;;;3.55;0.70;;;20.70;99.90;;;;;;4984452;28;20102;-74
2022/03/24 04:51:23;;;;;;;2.00;0.73;;;20.60;99.90;;;;;;4976555;28;20031;-74
2022/03/24 04:53:51;;;;;;;1.75;1.05;;;20.50;99.90;;;;;;4983209;28;20026;-73
2022/03/24 04:56:18;;;;;;;3.22;0.68;;;20.50;99.90;;;;;;4980819;28;20061;-74
2022/03/24 04:58:46;;;;;;;0.70;0.50;;;20.60;99.90;;;;;;4983252;28;20031;-73
2022/03/24 05:01:13;;;;;;;5.90;1.00;;;20.70;99.90;;;;;;4993122;28;20030;-75
2022/03/24 05:03:46;;;;;;;11.20;1.38;;;20.60;99.90;;;;;;5011369;28;20109;-75
2022/03/24 05:06:14;;;;;;;3.10;0.90;;;20.60;99.90;;;;;;5010713;28;20022;-75
2022/03/24 05:08:43;;;;;;;2.15;0.60;;;20.60;99.90;;;;;;4990472;28;20093;-75
2022/03/24 05:11:10;;;;;;;7.57;1.30;;;20.60;99.90;;;;;;4984691;28;20129;-73
2022/03/24 05:13:37;;;;;;;4.93;1.23;;;20.60;99.90;;;;;;4985610;28;20114;-73
2022/03/24 05:16:05;;;;;;;2.58;0.75;;;20.70;99.90;;;;;;4980491;28;20154;-74
2022/03/24 05:18:33;;;;;;;6.25;1.00;;;20.80;99.90;;;;;;4986284;28;20023;-74
2022/03/24 05:21:00;;;;;;;4.53;1.70;;;20.90;99.90;;;;;;4986068;28;20037;-74
2022/03/24 05:23:27;;;;;;;4.70;0.70;;;21.10;99.90;;;;;;4981224;28;20037;-73
2022/03/24 05:25:55;;;;;;;3.00;0.90;;;21.30;99.90;;;;;;4985290;28;20038;-73
2022/03/24 05:28:22;;;;;;;2.15;0.50;;;21.50;99.90;;;;;;4989305;28;20050;-73
2022/03/24 05:30:49;;;;;;;4.28;1.40;;;21.60;99.90;;;;;;4989370;28;20041;-73
2022/03/24 05:33:17;;;;;;;6.28;1.50;;;21.70;99.90;;;;;;4987013;28;20028;-74
2022/03/24 05:35:44;;;;;;;4.55;1.70;;;21.80;99.90;;;;;;4981058;28;20030;-74
2022/03/24 05:38:12;;;;;;;4.70;1.02;;;21.80;99.90;;;;;;4983595;28;20018;-73
2022/03/24 05:40:40;;;;;;;4.38;1.02;;;21.80;99.90;;;;;;4989244;28;20172;-74
2022/03/24 05:43:08;;;;;;;4.05;1.42;;;21.50;99.90;;;;;;4988879;28;20034;-75
2022/03/24 05:45:35;;;;;;;4.03;1.00;;;21.40;99.90;;;;;;4986625;28;20117;-74
2022/03/24 05:48:03;;;;;;;4.35;1.52;;;21.20;99.90;;;;;;4984810;28;20380;-76
2022/03/24 05:50:31;;;;;;;3.92;1.30;;;21.10;99.90;;;;;;4987293;28;20070;-75
2022/03/24 05:52:59;;;;;;;3.47;1.80;;;20.90;99.90;;;;;;4986380;28;20030;-73
2022/03/24 05:55:26;;;;;;;5.00;1.38;;;20.80;99.90;;;;;;4979909;28;20041;-74
2022/03/24 05:57:55;;;;;;;4.60;1.77;;;20.80;99.90;;;;;;4982414;28;20034;-75
2022/03/24 06:00:24;;;;;;;3.50;1.42;;;20.80;99.90;;;;;;4980828;28;20038;-77
2022/03/24 06:02:53;;;;;;;5.00;1.38;;;20.80;99.90;;;;;;4985433;28;20023;-78
2022/03/24 06:05:23;;;;;;;3.88;1.38;;;20.70;99.90;;;;;;4987817;28;20034;-78
2022/03/24 06:07:51;;;;;;;5.80;1.63;;;20.70;99.90;;;;;;4985156;28;20500;-76
2022/03/24 06:10:18;;;;;;;7.28;1.20;;;20.70;99.90;;;;;;4986558;28;20047;-77
2022/03/24 06:12:49;;;;;;;7.47;3.30;;;20.70;99.90;;;;;;4980525;28;20154;-76
2022/03/24 06:15:16;;;;;;;4.45;3.33;;;20.60;99.90;;;;;;4982200;28;20086;-76
2022/03/24 06:17:43;;;;;;;3.08;1.73;;;20.60;99.90;;;;;;4985837;28;20065;-75
2022/03/24 06:20:12;;;;;;;3.08;1.08;;;20.60;99.90;;;;;;4992015;28;20062;-75
2022/03/24 06:22:53;;;;;;;4.60;1.10;;;20.60;99.90;;;;;;4984316;28;20062;-76
2022/03/24 06:25:22;;;;;;;4.93;1.35;;;20.70;99.90;;;;;;4984123;28;20038;-74
2022/03/24 06:27:50;;;;;;;5.13;1.50;;;20.70;99.90;;;;;;4978377;28;20062;-76
2022/03/24 06:30:19;;;;;;;3.75;1.50;;;20.60;99.90;;;;;;4979364;28;20066;-74
2022/03/24 06:32:47;;;;;;;4.03;1.98;;;20.60;99.90;;;;;;4981115;28;20050;-77
2022/03/24 06:35:15;;;;;;;7.70;1.30;;;20.50;99.90;;;;;;4983617;28;20038;-74
2022/03/24 06:37:44;;;;;;;3.80;1.23;;;20.60;99.90;;;;;;4992830;28;20050;-76
2022/03/24 06:40:14;;;;;;;1.83;0.95;;;20.70;99.90;;;;;;4977678;28;20041;-79
2022/03/24 06:42:41;;;;;;;3.50;1.00;;;20.80;99.90;;;;;;4986502;28;20027;-76
2022/03/24 06:45:11;;;;;;;7.25;1.30;;;20.80;99.90;;;;;;4990141;28;20030;-75
2022/03/24 06:47:40;;;;;;;5.57;1.88;;;20.80;99.90;;;;;;4988261;28;20101;-76
2022/03/24 06:50:13;;;;;;;4.00;1.48;;;20.90;99.90;;;;;;4995278;28;20403;-75
2022/03/24 06:52:41;;;;;;;5.20;1.80;;;20.70;99.90;;;;;;4985796;28;20034;-76
2022/03/24 06:55:10;;;;;;;4.28;1.27;;;20.60;99.90;;;;;;4994257;28;20489;-76
2022/03/24 06:57:37;;;;;;;3.35;0.93;;;20.60;99.90;;;;;;4991607;28;20030;-76
2022/03/24 07:00:06;;;;;;;8.45;1.17;;;20.50;99.90;;;;;;4979107;28;20530;-75
2022/03/24 07:02:33;;;;;;;7.93;1.25;;;20.50;99.90;;;;;;4981307;28;20027;-75
2022/03/24 07:05:01;;;;;;;5.57;1.08;;;20.40;99.90;;;;;;4989303;28;20035;-73
2022/03/24 07:07:28;;;;;;;4.60;2.03;;;20.40;99.90;;;;;;4982550;28;20030;-75
2022/03/24 07:09:55;;;;;;;4.07;1.00;;;20.30;99.90;;;;;;4993083;28;20041;-75
2022/03/24 07:12:23;;;;;;;2.25;1.45;;;20.20;99.90;;;;;;4995167;28;20030;-76
2022/03/24 07:14:51;;;;;;;3.33;0.90;;;20.20;99.90;;;;;;4993937;28;20050;-74
2022/03/24 07:17:19;;;;;;;3.40;2.05;;;20.10;99.90;;;;;;4994964;28;20022;-74
2022/03/24 07:19:47;;;;;;;4.28;0.98;;;20.10;99.90;;;;;;4978611;28;20034;-76
2022/03/24 07:22:15;;;;;;;4.00;0.65;;;20.10;99.90;;;;;;4979928;28;20114;-75
2022/03/24 07:24:42;;;;;;;7.45;2.00;;;20.10;99.90;;;;;;4992620;28;20060;-74
2022/03/24 07:27:10;;;;;;;2.45;0.88;;;20.10;99.90;;;;;;4985663;28;20053;-76
2022/03/24 07:29:37;;;;;;;3.88;1.50;;;20.00;99.90;;;;;;4992673;28;20113;-75
2022/03/24 07:32:05;;;;;;;4.40;1.58;;;20.00;99.90;;;;;;4993637;28;20093;-77
2022/03/24 07:34:32;;;;;;;4.22;1.42;;;20.00;99.90;;;;;;4984759;28;20034;-76
2022/03/24 07:37:00;;;;;;;4.78;1.23;;;20.00;99.90;;;;;;4994145;28;20114;-75
2022/03/24 07:39:27;;;;;;;5.30;0.93;;;19.90;99.90;;;;;;4991470;28;20121;-75
2022/03/24 07:41:54;;;;;;;2.42;1.27;;;19.90;99.90;;;;;;4978806;28;20064;-76
2022/03/24 07:44:23;;;;;;;4.18;1.00;;;19.80;99.90;;;;;;4989629;28;20074;-76
2022/03/24 07:46:50;;;;;;;2.38;0.80;;;19.80;99.90;;;;;;4994413;28;20035;-76
2022/03/24 07:49:18;;;;;;;2.47;1.08;;;19.70;99.90;;;;;;4990187;28;20038;-75
2022/03/24 07:51:45;;;;;;;4.22;0.63;;;19.70;99.90;;;;;;4975183;28;20181;-75
2022/03/24 07:54:13;;;;;;;4.13;1.27;;;19.60;99.90;;;;;;4983926;28;20072;-75
2022/03/24 07:56:41;;;;;;;1.65;0.93;;;19.60;99.90;;;;;;4984644;28;20037;-75
2022/03/24 07:59:08;;;;;;;1.17;0.82;;;19.50;99.90;;;;;;4986317;28;20030;-75
2022/03/24 08:01:37;;;;;;;1.73;0.95;;;19.40;99.90;;;;;;4985014;28;20389;-77
2022/03/24 08:04:06;;;;;;;2.88;0.95;;;19.40;99.90;;;;;;4983221;28;20039;-75
2022/03/24 08:06:39;;;;;;;4.13;1.42;;;19.30;99.90;;;;;;4981427;28;20393;-76
2022/03/24 08:09:06;;;;;;;7.75;3.92;;;19.30;99.90;;;;;;4981927;28;20037;-75
2022/03/24 08:11:33;;;;;;;14.32;3.75;;;19.30;99.90;;;;;;4982546;28;20035;-75
2022/03/24 08:14:01;;;;;;;2.40;1.88;;;19.20;99.90;;;;;;4983894;28;20110;-76
2022/03/24 08:16:28;;;;;;;5.35;2.25;;;19.20;99.90;;;;;;4981810;28;20037;-75
2022/03/24 08:18:56;;;;;;;5.30;2.38;;;19.10;99.90;;;;;;4983841;28;20026;-75
2022/03/24 08:21:25;;;;;;;5.50;2.67;;;19.10;99.90;;;;;;4983690;28;20538;-75
2022/03/24 08:23:53;;;;;;;4.70;1.77;;;19.10;99.90;;;;;;4983931;28;20022;-76
2022/03/24 08:26:21;;;;;;;4.05;1.10;;;19.10;99.90;;;;;;4991270;28;20042;-76
2022/03/24 08:28:48;;;;;;;2.28;1.15;;;19.10;99.90;;;;;;4988926;28;20045;-76
2022/03/24 08:31:15;;;;;;;4.20;1.00;;;19.10;99.90;;;;;;4989459;28;20042;-76
2022/03/24 08:33:43;;;;;;;5.60;1.13;;;19.00;99.90;;;;;;4988797;28;20038;-74
2022/03/24 08:36:10;;;;;;;3.15;1.05;;;19.00;99.90;;;;;;4986121;28;20038;-75
2022/03/24 08:38:38;;;;;;;2.53;1.27;;;19.00;99.90;;;;;;4983588;28;20023;-75
2022/03/24 08:41:06;;;;;;;2.90;1.08;;;19.00;99.90;;;;;;4988849;28;20034;-76
2022/03/24 08:43:34;;;;;;;4.03;1.27;;;19.00;99.90;;;;;;4983457;28;20038;-76
2022/03/24 08:46:02;;;;;;;2.85;0.93;;;19.00;99.90;;;;;;4986052;28;20026;-76
2022/03/24 08:48:30;;;;;;;3.90;1.13;;;19.00;99.90;;;;;;4997855;28;20090;-75
2022/03/24 08:51:00;;;;;;;5.10;1.08;;;19.00;99.90;;;;;;4999027;28;20497;-75
2022/03/24 08:53:27;;;;;;;4.25;1.70;;;19.00;99.90;;;;;;4999338;28;20034;-77
2022/03/24 08:55:55;;;;;;;2.10;1.23;;;19.00;99.90;;;;;;4989869;28;20066;-77
2022/03/24 08:58:24;;;;;;;3.70;1.10;;;19.00;99.90;;;;;;4982035;28;20069;-77
2022/03/24 09:00:52;;;;;;;4.63;1.45;;;19.00;99.90;;;;;;4987363;28;20026;-77
2022/03/24 09:03:19;;;;;;;2.78;1.52;;;19.00;99.90;;;;;;4980635;28;20477;-76
2022/03/24 09:05:47;;;;;;;2.47;1.48;;;19.00;99.90;;;;;;4981048;28;20088;-75
2022/03/24 09:08:14;;;;;;;3.28;1.48;;;19.10;99.90;;;;;;4985634;28;20450;-75
2022/03/24 09:10:42;;;;;;;3.33;1.58;;;19.10;99.90;;;;;;4973332;28;20050;-76
2022/03/24 09:13:10;;;;;;;2.33;1.10;;;19.10;99.90;;;;;;4975786;28;20030;-75
2022/03/24 09:15:37;;;;;;;5.72;1.83;;;19.10;99.90;;;;;;4977292;28;20038;-75
2022/03/24 09:18:05;;;;;;;7.53;1.70;;;19.10;99.90;;;;;;4974946;28;20085;-75
2022/03/24 09:20:32;;;;;;;3.92;1.30;;;19.20;99.90;;;;;;4976812;28;20022;-75
2022/03/24 09:22:59;;;;;;;4.30;2.15;;;19.20;99.90;;;;;;4985992;28;20023;-75
2022/03/24 09:25:27;;;;;;;3.15;1.92;;;19.20;99.90;;;;;;4985669;28;20373;-75
2022/03/24 09:27:54;;;;;;;3.53;1.90;;;19.20;99.90;;;;;;4978558;28;20034;-76
2022/03/24 09:30:22;;;;;;;8.13;1.77;;;19.20;99.90;;;;;;4988453;28;20112;-74
2022/03/24 09:32:51;;;;;;;1.90;1.60;;;19.20;99.90;;;;;;4983049;28;20034;-74
2022/03/24 09:35:18;;;;;;;5.32;2.22;;;19.20;99.90;;;;;;4987705;28;20022;-75
2022/03/24 09:37:47;;;;;;;5.95;2.33;;;19.20;99.90;;;;;;4976583;28;20053;-75
2022/03/24 09:40:15;;;;;;;5.13;1.83;;;19.20;99.90;;;;;;4978043;28;20088;-75
2022/03/24 09:42:43;;;;;;;5.82;2.40;;;19.30;99.90;;;;;;4976804;28;22732;-74
2022/03/24 09:45:11;;;;;;;4.28;2.10;;;19.30;99.90;;;;;;4979779;28;20031;-74
2022/03/24 09:47:40;;;;;;;13.05;2.65;;;19.30;99.90;;;;;;4983732;28;20038;-75
2022/03/24 09:50:10;;;;;;;7.65;3.25;;;19.30;99.90;;;;;;4977497;28;20031;-74
2022/03/24 09:52:38;;;;;;;7.00;2.70;;;19.30;99.90;;;;;;4985006;28;20023;-77
2022/03/24 09:55:08;;;;;;;7.35;2.63;;;19.30;99.90;;;;;;4985177;28;20034;-76
2022/03/24 09:57:36;;;;;;;5.40;2.17;;;19.20;99.90;;;;;;4988814;28;20039;-76
2022/03/24 10:00:05;;;;;;;5.15;2.50;;;19.20;99.90;;;;;;4985719;28;20045;-75
2022/03/24 10:02:33;;;;;;;3.97;1.85;;;19.20;99.90;;;;;;4986149;28;20091;-76
2022/03/24 10:05:01;;;;;;;11.52;3.40;;;19.30;99.90;;;;;;4981226;28;20138;-75
2022/03/24 10:07:33;;;;;;;6.47;2.20;;;19.30;99.90;;;;;;4989448;28;20031;-76
2022/03/24 10:10:02;;;;;;;3.92;1.95;;;19.30;99.90;;;;;;4984565;28;20046;-75
2022/03/24 10:12:37;;;;;;;9.73;2.72;;;19.20;99.90;;;;;;4990204;28;20034;-75
2022/03/24 10:15:09;;;;;;;6.17;2.83;;;19.30;99.90;;;;;;4995227;28;20026;-75
2022/03/24 10:17:38;;;;;;;6.75;2.40;;;19.30;99.90;;;;;;4993813;28;20027;-75
2022/03/24 10:20:16;;;;;;;3.17;1.90;;;19.20;99.90;;;;;;4985232;28;20038;-75
2022/03/24 10:23:01;;;;;;;7.32;2.45;;;19.30;99.90;;;;;;4990962;28;20026;-75
2022/03/24 10:25:34;;;;;;;3.88;1.42;;;19.20;99.90;;;;;;4988262;28;20026;-77
2022/03/24 10:28:17;;;;;;;2.08;0.70;;;19.20;99.90;;;;;;4992869;28;20357;-76
2022/03/24 10:30:52;;;;;;;5.85;0.80;;;19.10;99.90;;;;;;4989395;28;20054;-77
2022/03/24 10:33:39;;;;;;;2.13;1.17;;;19.10;99.90;;;;;;4977150;28;20339;-77
2022/03/24 10:36:19;;;;;;;2.33;0.70;;;19.00;99.90;;;;;;4993526;28;20045;-75
2022/03/24 10:38:56;;;;;;;2.42;0.68;;;18.90;99.90;;;;;;4992322;28;20032;-77
2022/03/24 10:41:29;;;;;;;4.32;2.50;;;18.80;99.90;;;;;;4993460;28;20038;-76
2022/03/24 10:43:59;;;;;;;2.95;1.17;;;18.80;99.90;;;;;;4986490;28;20029;-76
2022/03/24 10:46:28;;;;;;;2.63;1.23;;;18.80;99.90;;;;;;4984693;28;20081;-78
2022/03/24 10:48:58;;;;;;;3.55;0.70;;;18.80;99.90;;;;;;4979112;28;20030;-77
2022/03/24 10:51:31;;;;;;;7.32;1.45;;;18.80;99.90;;;;;;4981785;28;20401;-75
2022/03/24 10:54:35;;;;;;;5.40;1.10;;;18.80;99.90;;;;;;4981150;28;20023;-74
2022/03/24 10:57:13;;;;;;;3.00;0.90;;;18.70;99.90;;;;;;4990079;28;20085;-75
2022/03/24 10:59:45;;;;;;;4.03;1.17;;;18.70;99.90;;;;;;4992555;28;20109;-75
2022/03/24 11:02:13;;;;;;;2.95;1.17;;;18.70;99.90;;;;;;4984159;28;20429;-77
2022/03/24 11:04:43;;;;;;;5.65;1.83;;;18.70;99.90;;;;;;4987592;28;20125;-77
2022/03/24 11:07:10;;;;;;;5.45;1.80;;;18.70;99.90;;;;;;4989663;28;20477;-77
2022/03/24 11:09:38;;;;;;;5.28;1.38;;;18.80;99.90;;;;;;4988297;28;20038;-76
2022/03/24 11:12:26;;;;;;;6.00;1.20;;;18.80;99.90;;;;;;4979780;28;20038;-75
2022/03/24 11:15:05;;;;;;;5.32;1.98;;;18.70;99.90;;;;;;4976832;28;20123;-76
2022/03/24 11:17:37;;;;;;;3.03;1.75;;;18.80;99.90;;;;;;4981264;28;20041;-76
2022/03/24 11:20:13;;;;;;;3.95;1.63;;;18.80;99.90;;;;;;4979202;28;20118;-75
2022/03/24 11:23:02;;;;;;;5.70;1.88;;;18.80;99.90;;;;;;4983852;28;20037;-75
2022/03/24 11:25:30;;;;;;;6.43;2.17;;;18.80;99.90;;;;;;4985016;28;20054;-74
2022/03/24 11:27:58;;;;;;;7.43;1.65;;;18.80;99.90;;;;;;4989090;28;20027;-75
2022/03/24 11:30:27;;;;;;;7.70;1.30;;;18.80;99.90;;;;;;4990728;28;20062;-75
2022/03/24 11:32:55;;;;;;;2.58;1.70;;;18.80;99.90;;;;;;4992754;28;20034;-76
2022/03/24 11:35:24;;;;;;;7.03;2.65;;;18.80;99.90;;;;;;4989576;28;20044;-76
2022/03/24 11:37:51;;;;;;;8.90;2.95;;;18.80;99.90;;;;;;4993286;28;20113;-75
2022/03/24 11:40:24;;;;;;;10.50;4.20;;;18.70;99.90;;;;;;4985468;28;20078;-76
2022/03/24 11:43:21;;;;;;;5.53;4.03;;;18.80;99.90;;;;;;4985269;28;20482;-76
2022/03/24 11:45:54;;;;;;;5.93;4.22;;;18.80;99.90;;;;;;4976679;28;20015;-76
2022/03/24 11:48:37;;;;;;;7.18;4.50;;;18.80;99.90;;;;;;4985240;28;20728;-77
2022/03/24 11:51:18;;;;;;;5.07;3.03;;;18.80;99.90;;;;;;4984698;28;20041;-76
2022/03/24 11:53:59;;;;;;;7.20;3.67;;;18.80;99.90;;;;;;4988637;28;20152;-75
2022/03/24 11:56:26;;;;;;;11.27;5.05;;;18.80;99.90;;;;;;4986197;28;20803;-74
2022/03/24 11:58:56;;;;;;;5.07;3.85;;;18.80;99.90;;;;;;4978567;28;20456;-75
2022/03/24 12:01:26;;;;;;;7.63;3.88;;;18.90;99.90;;;;;;4985287;28;20081;-72
2022/03/24 12:03:59;;;;;;;8.30;5.13;;;18.90;99.90;;;;;;4980295;28;20034;-76
2022/03/24 12:06:54;;;;;;;10.23;5.47;;;18.80;99.90;;;;;;4980850;28;20026;-75
2022/03/24 12:09:34;;;;;;;7.50;5.03;;;18.80;99.90;;;;;;4984150;28;20034;-73
2022/03/24 12:12:04;;;;;;;13.82;6.82;;;18.90;99.90;;;;;;4986193;28;20030;-73
2022/03/24 12:14:32;;;;;;;9.70;6.82;;;18.90;99.90;;;;;;4988847;28;20058;-76
2022/03/24 12:17:07;;;;;;;10.55;7.35;;;18.90;99.90;;;;;;4991695;28;20027;-76
2022/03/24 12:19:37;;;;;;;11.75;7.55;;;18.80;99.90;;;;;;4982649;28;20117;-78
2022/03/24 12:22:25;;;;;;;12.30;6.57;;;18.90;99.90;;;;;;4981716;28;20366;-77
2022/03/24 12:25:08;;;;;;;8.60;6.35;;;18.80;99.90;;;;;;4994112;28;20047;-75
2022/03/24 12:27:56;;;;;;;15.80;6.82;;;18.90;99.90;;;;;;4992356;28;20038;-75
2022/03/24 12:30:25;;;;;;;8.40;6.05;;;18.90;99.90;;;;;;4995293;28;20061;-76
2022/03/24 12:33:09;;;;;;;8.77;6.35;;;18.90;99.90;;;;;;4987971;28;20534;-75
2022/03/24 12:35:51;;;;;;;11.45;6.85;;;18.90;99.90;;;;;;4980832;28;20118;-75
2022/03/24 12:38:34;;;;;;;10.00;5.63;;;18.80;99.90;;;;;;4988716;28;20088;-76
2022/03/24 12:41:07;;;;;;;10.45;5.72;;;18.90;99.90;;;;;;4983762;28;20034;-77
2022/03/24 12:43:46;;;;;;;14.60;6.38;;;18.80;99.90;;;;;;4986915;28;20030;-76
2022/03/24 12:46:32;;;;;;;13.27;5.75;;;18.90;99.90;;;;;;4976469;28;20026;-76
2022/03/24 12:49:07;;;;;;;10.68;4.97;;;18.90;99.90;;;;;;4989001;28;20092;-76
2022/03/24 12:51:34;;;;;;;8.57;4.80;;;18.90;99.90;;;;;;4979453;28;20043;-76
2022/03/24 12:54:16;;;;;;;6.45;4.10;;;18.90;99.90;;;;;;4986741;28;20026;-76
2022/03/24 12:56:44;;;;;;;7.43;4.70;;;18.90;99.90;;;;;;4987633;28;20038;-76